sensor_id;sensor_type;location;lat;lon;timestamp;P1;durP1;ratioP1;P2;durP2;ratioP2
20832;SDS011;56075;51.264;7.150;2023-04-24T00:00:46;0.80;;;0.50;;
20832;SDS011;56075;51.264;7.150;2023-04-24T00:03:17;2.10;;;0.60;;
20832;SDS011;56075;51.264;7.150;2023-04-24T00:05:51;1.23;;;0.50;;
20832;SDS011;56075;51.264;7.150;2023-04-24T00:08:22;0.93;;;0.80;;
20832;SDS011;56075;51.264;7.150;2023-04-24T00:10:54;1.85;;;0.90;;
20832;SDS011;56075;51.264;7.150;2023-04-24T00:13:25;1.98;;;0.57;;
20832;SDS011;56075;51.264;7.150;2023-04-24T00:15:58;0.88;;;0.70;;
20832;SDS011;56075;51.264;7.150;2023-04-24T00:18:30;1.50;;;0.70;;
20832;SDS011;56075;51.264;7.150;2023-04-24T00:21:01;0.77;;;0.70;;
20832;SDS011;56075;51.264;7.150;2023-04-24T00:23:32;1.40;;;0.50;;
20832;SDS011;56075;51.264;7.150;2023-04-24T00:26:03;0.93;;;0.70;;
20832;SDS011;56075;51.264;7.150;2023-04-24T00:28:34;1.60;;;0.68;;
20832;SDS011;56075;51.264;7.150;2023-04-24T00:31:07;0.80;;;0.65;;
20832;SDS011;56075;51.264;7.150;2023-04-24T00:33:39;3.30;;;0.90;;
20832;SDS011;56075;51.264;7.150;2023-04-24T00:36:10;3.45;;;0.90;;
20832;SDS011;56075;51.264;7.150;2023-04-24T00:38:41;1.75;;;1.00;;
20832;SDS011;56075;51.264;7.150;2023-04-24T00:41:12;1.50;;;0.82;;
20832;SDS011;56075;51.264;7.150;2023-04-24T00:43:44;2.03;;;1.10;;
20832;SDS011;56075;51.264;7.150;2023-04-24T00:46:15;1.10;;;0.90;;
20832;SDS011;56075;51.264;7.150;2023-04-24T00:48:47;2.78;;;1.00;;
20832;SDS011;56075;51.264;7.150;2023-04-24T00:51:18;1.08;;;0.85;;
20832;SDS011;56075;51.264;7.150;2023-04-24T00:53:50;2.88;;;1.00;;
20832;SDS011;56075;51.264;7.150;2023-04-24T00:56:22;1.42;;;0.95;;
20832;SDS011;56075;51.264;7.150;2023-04-24T00:58:54;1.52;;;0.90;;
20832;SDS011;56075;51.264;7.150;2023-04-24T01:01:26;1.73;;;0.93;;
20832;SDS011;56075;51.264;7.150;2023-04-24T01:03:57;7.32;;;1.20;;
20832;SDS011;56075;51.264;7.150;2023-04-24T01:06:29;2.00;;;0.85;;
20832;SDS011;56075;51.264;7.150;2023-04-24T01:09:02;2.63;;;0.93;;
20832;SDS011;56075;51.264;7.150;2023-04-24T01:11:34;3.00;;;1.23;;
20832;SDS011;56075;51.264;7.150;2023-04-24T01:14:06;2.88;;;1.20;;
20832;SDS011;56075;51.264;7.150;2023-04-24T01:16:38;3.90;;;1.40;;
20832;SDS011;56075;51.264;7.150;2023-04-24T01:19:10;2.17;;;1.10;;
20832;SDS011;56075;51.264;7.150;2023-04-24T01:21:42;3.28;;;1.38;;
20832;SDS011;56075;51.264;7.150;2023-04-24T01:24:14;5.53;;;1.60;;
20832;SDS011;56075;51.264;7.150;2023-04-24T01:26:45;2.22;;;1.40;;
20832;SDS011;56075;51.264;7.150;2023-04-24T01:29:17;2.22;;;1.33;;
20832;SDS011;56075;51.264;7.150;2023-04-24T01:31:49;2.67;;;1.50;;
20832;SDS011;56075;51.264;7.150;2023-04-24T01:34:20;2.63;;;1.48;;
20832;SDS011;56075;51.264;7.150;2023-04-24T01:36:52;4.30;;;1.30;;
20832;SDS011;56075;51.264;7.150;2023-04-24T01:39:23;2.28;;;1.30;;
20832;SDS011;56075;51.264;7.150;2023-04-24T01:41:58;2.42;;;1.25;;
20832;SDS011;56075;51.264;7.150;2023-04-24T01:44:29;5.00;;;1.60;;
20832;SDS011;56075;51.264;7.150;2023-04-24T01:47:01;2.38;;;1.33;;
20832;SDS011;56075;51.264;7.150;2023-04-24T01:49:32;2.95;;;1.55;;
20832;SDS011;56075;51.264;7.150;2023-04-24T01:52:03;3.70;;;1.60;;
20832;SDS011;56075;51.264;7.150;2023-04-24T01:54:35;4.75;;;1.35;;
20832;SDS011;56075;51.264;7.150;2023-04-24T01:57:06;2.65;;;1.63;;
20832;SDS011;56075;51.264;7.150;2023-04-24T01:59:38;3.60;;;1.85;;
20832;SDS011;56075;51.264;7.150;2023-04-24T02:02:09;4.67;;;2.00;;
20832;SDS011;56075;51.264;7.150;2023-04-24T02:04:40;4.50;;;2.10;;
20832;SDS011;56075;51.264;7.150;2023-04-24T02:07:11;5.10;;;2.05;;
20832;SDS011;56075;51.264;7.150;2023-04-24T02:09:43;3.87;;;2.30;;
20832;SDS011;56075;51.264;7.150;2023-04-24T02:12:14;3.67;;;2.40;;
20832;SDS011;56075;51.264;7.150;2023-04-24T02:14:48;5.10;;;2.50;;
20832;SDS011;56075;51.264;7.150;2023-04-24T02:17:19;6.00;;;2.77;;
20832;SDS011;56075;51.264;7.150;2023-04-24T02:19:50;4.53;;;2.70;;
20832;SDS011;56075;51.264;7.150;2023-04-24T02:22:22;6.43;;;2.83;;
20832;SDS011;56075;51.264;7.150;2023-04-24T02:24:53;7.80;;;3.03;;
20832;SDS011;56075;51.264;7.150;2023-04-24T02:27:24;8.95;;;3.42;;
20832;SDS011;56075;51.264;7.150;2023-04-24T02:29:55;9.23;;;3.47;;
20832;SDS011;56075;51.264;7.150;2023-04-24T02:32:26;7.43;;;3.53;;
20832;SDS011;56075;51.264;7.150;2023-04-24T02:34:58;9.75;;;3.90;;
20832;SDS011;56075;51.264;7.150;2023-04-24T02:37:29;8.60;;;4.67;;
20832;SDS011;56075;51.264;7.150;2023-04-24T02:40:01;7.60;;;4.30;;
20832;SDS011;56075;51.264;7.150;2023-04-24T02:42:33;13.20;;;4.60;;
20832;SDS011;56075;51.264;7.150;2023-04-24T02:45:05;8.60;;;4.67;;
20832;SDS011;56075;51.264;7.150;2023-04-24T02:47:36;9.93;;;4.67;;
20832;SDS011;56075;51.264;7.150;2023-04-24T02:50:07;7.80;;;4.37;;
20832;SDS011;56075;51.264;7.150;2023-04-24T02:52:39;10.50;;;4.37;;
20832;SDS011;56075;51.264;7.150;2023-04-24T02:55:10;12.50;;;5.30;;
20832;SDS011;56075;51.264;7.150;2023-04-24T02:57:42;12.53;;;4.87;;
20832;SDS011;56075;51.264;7.150;2023-04-24T03:00:13;8.63;;;4.13;;
20832;SDS011;56075;51.264;7.150;2023-04-24T03:02:44;10.17;;;4.90;;
20832;SDS011;56075;51.264;7.150;2023-04-24T03:05:16;9.63;;;4.70;;
20832;SDS011;56075;51.264;7.150;2023-04-24T03:07:47;9.20;;;5.00;;
20832;SDS011;56075;51.264;7.150;2023-04-24T03:10:19;11.40;;;5.33;;
20832;SDS011;56075;51.264;7.150;2023-04-24T03:12:50;10.23;;;5.27;;
20832;SDS011;56075;51.264;7.150;2023-04-24T03:15:22;10.57;;;5.30;;
20832;SDS011;56075;51.264;7.150;2023-04-24T03:17:54;11.87;;;5.77;;
20832;SDS011;56075;51.264;7.150;2023-04-24T03:20:25;12.70;;;5.50;;
20832;SDS011;56075;51.264;7.150;2023-04-24T03:22:59;12.70;;;6.20;;
20832;SDS011;56075;51.264;7.150;2023-04-24T03:25:31;10.73;;;5.70;;
20832;SDS011;56075;51.264;7.150;2023-04-24T03:28:02;10.97;;;5.80;;
20832;SDS011;56075;51.264;7.150;2023-04-24T03:30:46;14.63;;;6.00;;
20832;SDS011;56075;51.264;7.150;2023-04-24T03:33:18;11.03;;;5.87;;
20832;SDS011;56075;51.264;7.150;2023-04-24T03:36:00;12.80;;;5.97;;
20832;SDS011;56075;51.264;7.150;2023-04-24T03:38:39;14.90;;;5.60;;
20832;SDS011;56075;51.264;7.150;2023-04-24T03:41:32;10.20;;;5.50;;
20832;SDS011;56075;51.264;7.150;2023-04-24T03:44:13;12.20;;;5.60;;
20832;SDS011;56075;51.264;7.150;2023-04-24T03:46:45;12.10;;;5.63;;
20832;SDS011;56075;51.264;7.150;2023-04-24T03:49:16;13.20;;;5.60;;
20832;SDS011;56075;51.264;7.150;2023-04-24T03:51:52;12.00;;;5.90;;
20832;SDS011;56075;51.264;7.150;2023-04-24T03:54:28;12.13;;;5.80;;
20832;SDS011;56075;51.264;7.150;2023-04-24T03:56:59;12.20;;;5.87;;
20832;SDS011;56075;51.264;7.150;2023-04-24T03:59:33;10.73;;;5.00;;
20832;SDS011;56075;51.264;7.150;2023-04-24T04:02:16;11.37;;;5.83;;
20832;SDS011;56075;51.264;7.150;2023-04-24T04:04:47;13.83;;;5.37;;
20832;SDS011;56075;51.264;7.150;2023-04-24T04:07:19;14.80;;;5.80;;
20832;SDS011;56075;51.264;7.150;2023-04-24T04:09:50;12.00;;;5.50;;
20832;SDS011;56075;51.264;7.150;2023-04-24T04:12:21;11.70;;;5.70;;
20832;SDS011;56075;51.264;7.150;2023-04-24T04:14:52;10.93;;;5.47;;
20832;SDS011;56075;51.264;7.150;2023-04-24T04:17:24;11.90;;;5.63;;
20832;SDS011;56075;51.264;7.150;2023-04-24T04:19:56;13.73;;;5.90;;
20832;SDS011;56075;51.264;7.150;2023-04-24T04:22:28;12.03;;;6.27;;
20832;SDS011;56075;51.264;7.150;2023-04-24T04:25:00;12.60;;;5.93;;
20832;SDS011;56075;51.264;7.150;2023-04-24T04:27:32;10.97;;;5.60;;
20832;SDS011;56075;51.264;7.150;2023-04-24T04:30:13;12.97;;;6.30;;
20832;SDS011;56075;51.264;7.150;2023-04-24T04:32:56;9.93;;;5.77;;
20832;SDS011;56075;51.264;7.150;2023-04-24T04:35:28;15.47;;;6.90;;
20832;SDS011;56075;51.264;7.150;2023-04-24T04:38:00;12.17;;;6.30;;
20832;SDS011;56075;51.264;7.150;2023-04-24T04:40:48;13.73;;;6.27;;
20832;SDS011;56075;51.264;7.150;2023-04-24T04:43:26;12.43;;;6.53;;
20832;SDS011;56075;51.264;7.150;2023-04-24T04:45:58;14.70;;;6.50;;
20832;SDS011;56075;51.264;7.150;2023-04-24T04:48:42;15.20;;;6.63;;
20832;SDS011;56075;51.264;7.150;2023-04-24T04:51:14;14.70;;;6.27;;
20832;SDS011;56075;51.264;7.150;2023-04-24T04:53:45;12.63;;;6.40;;
20832;SDS011;56075;51.264;7.150;2023-04-24T04:56:16;14.23;;;6.37;;
20832;SDS011;56075;51.264;7.150;2023-04-24T04:58:50;16.93;;;6.50;;
20832;SDS011;56075;51.264;7.150;2023-04-24T05:01:22;11.27;;;5.80;;
20832;SDS011;56075;51.264;7.150;2023-04-24T05:03:55;11.40;;;5.88;;
20832;SDS011;56075;51.264;7.150;2023-04-24T05:06:26;13.70;;;6.00;;
20832;SDS011;56075;51.264;7.150;2023-04-24T05:08:59;14.33;;;5.83;;
20832;SDS011;56075;51.264;7.150;2023-04-24T05:11:40;12.23;;;6.00;;
20832;SDS011;56075;51.264;7.150;2023-04-24T05:14:11;14.70;;;5.87;;
20832;SDS011;56075;51.264;7.150;2023-04-24T05:16:44;13.67;;;5.00;;
20832;SDS011;56075;51.264;7.150;2023-04-24T05:19:20;12.57;;;5.60;;
20832;SDS011;56075;51.264;7.150;2023-04-24T05:21:51;12.60;;;5.83;;
20832;SDS011;56075;51.264;7.150;2023-04-24T05:24:23;12.60;;;6.17;;
20832;SDS011;56075;51.264;7.150;2023-04-24T05:27:19;13.40;;;6.53;;
20832;SDS011;56075;51.264;7.150;2023-04-24T05:29:52;15.90;;;7.17;;
20832;SDS011;56075;51.264;7.150;2023-04-24T05:32:24;17.93;;;6.83;;
20832;SDS011;56075;51.264;7.150;2023-04-24T05:34:58;14.50;;;6.53;;
20832;SDS011;56075;51.264;7.150;2023-04-24T05:37:30;11.37;;;5.70;;
20832;SDS011;56075;51.264;7.150;2023-04-24T05:40:01;11.77;;;5.77;;
20832;SDS011;56075;51.264;7.150;2023-04-24T05:42:35;13.23;;;5.47;;
20832;SDS011;56075;51.264;7.150;2023-04-24T05:45:06;15.50;;;6.40;;
20832;SDS011;56075;51.264;7.150;2023-04-24T05:47:39;13.17;;;5.80;;
20832;SDS011;56075;51.264;7.150;2023-04-24T05:50:11;14.40;;;6.33;;
20832;SDS011;56075;51.264;7.150;2023-04-24T05:52:42;20.63;;;5.80;;
20832;SDS011;56075;51.264;7.150;2023-04-24T05:55:27;14.23;;;5.97;;
20832;SDS011;56075;51.264;7.150;2023-04-24T05:57:58;10.77;;;5.50;;
20832;SDS011;56075;51.264;7.150;2023-04-24T06:00:31;11.57;;;5.67;;
20832;SDS011;56075;51.264;7.150;2023-04-24T06:03:09;12.37;;;5.77;;
20832;SDS011;56075;51.264;7.150;2023-04-24T06:05:40;12.60;;;5.97;;
20832;SDS011;56075;51.264;7.150;2023-04-24T06:08:11;14.00;;;5.93;;
20832;SDS011;56075;51.264;7.150;2023-04-24T06:10:47;10.83;;;6.27;;
20832;SDS011;56075;51.264;7.150;2023-04-24T06:13:19;15.53;;;6.00;;
20832;SDS011;56075;51.264;7.150;2023-04-24T06:16:10;12.73;;;6.53;;
20832;SDS011;56075;51.264;7.150;2023-04-24T06:18:44;17.20;;;6.73;;
20832;SDS011;56075;51.264;7.150;2023-04-24T06:21:18;14.20;;;7.10;;
20832;SDS011;56075;51.264;7.150;2023-04-24T06:23:49;12.27;;;5.93;;
20832;SDS011;56075;51.264;7.150;2023-04-24T06:26:21;15.27;;;6.97;;
20832;SDS011;56075;51.264;7.150;2023-04-24T06:28:55;14.37;;;6.60;;
20832;SDS011;56075;51.264;7.150;2023-04-24T06:31:26;16.97;;;7.53;;
20832;SDS011;56075;51.264;7.150;2023-04-24T06:33:58;16.20;;;6.77;;
20832;SDS011;56075;51.264;7.150;2023-04-24T06:36:30;16.97;;;7.27;;
20832;SDS011;56075;51.264;7.150;2023-04-24T06:39:01;14.57;;;7.07;;
20832;SDS011;56075;51.264;7.150;2023-04-24T06:41:32;15.17;;;7.27;;
20832;SDS011;56075;51.264;7.150;2023-04-24T06:44:05;13.97;;;6.10;;
20832;SDS011;56075;51.264;7.150;2023-04-24T06:46:36;13.13;;;6.47;;
20832;SDS011;56075;51.264;7.150;2023-04-24T06:49:07;15.73;;;6.53;;
20832;SDS011;56075;51.264;7.150;2023-04-24T06:51:39;13.10;;;6.37;;
20832;SDS011;56075;51.264;7.150;2023-04-24T06:54:11;10.43;;;5.33;;
20832;SDS011;56075;51.264;7.150;2023-04-24T06:56:42;9.77;;;4.90;;
20832;SDS011;56075;51.264;7.150;2023-04-24T06:59:16;8.80;;;4.30;;
20832;SDS011;56075;51.264;7.150;2023-04-24T07:01:47;6.87;;;3.50;;
20832;SDS011;56075;51.264;7.150;2023-04-24T07:04:18;7.17;;;3.80;;
20832;SDS011;56075;51.264;7.150;2023-04-24T07:06:50;8.90;;;4.40;;
20832;SDS011;56075;51.264;7.150;2023-04-24T07:09:22;8.97;;;4.60;;
20832;SDS011;56075;51.264;7.150;2023-04-24T07:11:54;10.43;;;4.90;;
20832;SDS011;56075;51.264;7.150;2023-04-24T07:14:26;8.37;;;4.20;;
20832;SDS011;56075;51.264;7.150;2023-04-24T07:16:58;8.73;;;4.13;;
20832;SDS011;56075;51.264;7.150;2023-04-24T07:19:29;7.17;;;4.07;;
20832;SDS011;56075;51.264;7.150;2023-04-24T07:22:01;8.57;;;3.90;;
20832;SDS011;56075;51.264;7.150;2023-04-24T07:24:33;9.77;;;4.20;;
20832;SDS011;56075;51.264;7.150;2023-04-24T07:27:04;7.43;;;4.20;;
20832;SDS011;56075;51.264;7.150;2023-04-24T07:29:36;8.60;;;4.57;;
20832;SDS011;56075;51.264;7.150;2023-04-24T07:32:07;8.50;;;4.07;;
20832;SDS011;56075;51.264;7.150;2023-04-24T07:34:39;6.97;;;4.07;;
20832;SDS011;56075;51.264;7.150;2023-04-24T07:37:11;5.77;;;3.40;;
20832;SDS011;56075;51.264;7.150;2023-04-24T07:39:42;5.13;;;2.70;;
20832;SDS011;56075;51.264;7.150;2023-04-24T07:42:14;4.97;;;2.80;;
20832;SDS011;56075;51.264;7.150;2023-04-24T07:44:45;4.60;;;2.10;;
20832;SDS011;56075;51.264;7.150;2023-04-24T07:47:18;4.77;;;2.53;;
20832;SDS011;56075;51.264;7.150;2023-04-24T07:49:49;5.07;;;2.50;;
20832;SDS011;56075;51.264;7.150;2023-04-24T07:52:21;4.33;;;2.00;;
20832;SDS011;56075;51.264;7.150;2023-04-24T07:54:52;3.57;;;1.97;;
20832;SDS011;56075;51.264;7.150;2023-04-24T07:57:28;3.33;;;1.50;;
20832;SDS011;56075;51.264;7.150;2023-04-24T08:00:00;2.20;;;1.37;;
20832;SDS011;56075;51.264;7.150;2023-04-24T08:02:31;1.90;;;1.17;;
20832;SDS011;56075;51.264;7.150;2023-04-24T08:05:02;2.20;;;1.00;;
20832;SDS011;56075;51.264;7.150;2023-04-24T08:07:34;1.40;;;0.70;;
20832;SDS011;56075;51.264;7.150;2023-04-24T08:10:06;2.20;;;0.60;;
20832;SDS011;56075;51.264;7.150;2023-04-24T08:12:37;0.47;;;0.40;;
20832;SDS011;56075;51.264;7.150;2023-04-24T08:15:09;0.50;;;0.40;;
20832;SDS011;56075;51.264;7.150;2023-04-24T08:17:41;0.20;;;0.20;;
20832;SDS011;56075;51.264;7.150;2023-04-24T08:20:12;1.20;;;0.50;;
20832;SDS011;56075;51.264;7.150;2023-04-24T08:22:44;1.73;;;0.50;;
20832;SDS011;56075;51.264;7.150;2023-04-24T08:25:17;0.67;;;0.40;;
20832;SDS011;56075;51.264;7.150;2023-04-24T08:27:49;0.60;;;0.40;;
20832;SDS011;56075;51.264;7.150;2023-04-24T08:30:21;0.50;;;0.40;;
20832;SDS011;56075;51.264;7.150;2023-04-24T08:32:53;0.87;;;0.47;;
20832;SDS011;56075;51.264;7.150;2023-04-24T08:35:24;1.20;;;0.50;;
20832;SDS011;56075;51.264;7.150;2023-04-24T08:37:56;1.00;;;0.43;;
20832;SDS011;56075;51.264;7.150;2023-04-24T08:40:27;2.50;;;0.53;;
20832;SDS011;56075;51.264;7.150;2023-04-24T08:43:00;3.50;;;0.70;;
20832;SDS011;56075;51.264;7.150;2023-04-24T08:45:32;2.27;;;0.70;;
20832;SDS011;56075;51.264;7.150;2023-04-24T08:48:04;1.43;;;0.80;;
20832;SDS011;56075;51.264;7.150;2023-04-24T08:50:35;1.40;;;0.80;;
20832;SDS011;56075;51.264;7.150;2023-04-24T08:53:07;1.80;;;0.87;;
20832;SDS011;56075;51.264;7.150;2023-04-24T08:55:39;0.57;;;0.40;;
20832;SDS011;56075;51.264;7.150;2023-04-24T08:58:12;1.03;;;0.60;;
20832;SDS011;56075;51.264;7.150;2023-04-24T09:00:43;2.60;;;0.90;;
20832;SDS011;56075;51.264;7.150;2023-04-24T09:03:17;1.33;;;0.83;;
20832;SDS011;56075;51.264;7.150;2023-04-24T09:05:49;2.20;;;0.70;;
20832;SDS011;56075;51.264;7.150;2023-04-24T09:08:21;1.80;;;0.50;;
20832;SDS011;56075;51.264;7.150;2023-04-24T09:10:54;0.80;;;0.60;;
20832;SDS011;56075;51.264;7.150;2023-04-24T09:13:28;1.03;;;0.67;;
20832;SDS011;56075;51.264;7.150;2023-04-24T09:16:01;2.23;;;0.87;;
20832;SDS011;56075;51.264;7.150;2023-04-24T09:18:32;1.83;;;0.80;;
20832;SDS011;56075;51.264;7.150;2023-04-24T09:21:09;1.97;;;1.17;;
20832;SDS011;56075;51.264;7.150;2023-04-24T09:23:40;2.17;;;1.30;;
20832;SDS011;56075;51.264;7.150;2023-04-24T09:26:12;3.73;;;1.80;;
20832;SDS011;56075;51.264;7.150;2023-04-24T09:28:45;4.97;;;1.80;;
20832;SDS011;56075;51.264;7.150;2023-04-24T09:31:17;3.97;;;1.90;;
20832;SDS011;56075;51.264;7.150;2023-04-24T09:33:55;8.87;;;2.50;;
20832;SDS011;56075;51.264;7.150;2023-04-24T09:36:27;5.20;;;2.27;;
20832;SDS011;56075;51.264;7.150;2023-04-24T09:39:04;5.90;;;2.30;;
20832;SDS011;56075;51.264;7.150;2023-04-24T09:41:45;4.30;;;2.10;;
20832;SDS011;56075;51.264;7.150;2023-04-24T09:44:25;3.70;;;2.10;;
20832;SDS011;56075;51.264;7.150;2023-04-24T09:46:58;5.13;;;2.40;;
20832;SDS011;56075;51.264;7.150;2023-04-24T09:49:30;5.10;;;2.30;;
20832;SDS011;56075;51.264;7.150;2023-04-24T09:52:04;9.07;;;2.50;;
20832;SDS011;56075;51.264;7.150;2023-04-24T09:54:36;8.20;;;2.90;;
20832;SDS011;56075;51.264;7.150;2023-04-24T09:57:08;6.10;;;3.00;;
20832;SDS011;56075;51.264;7.150;2023-04-24T09:59:42;6.13;;;2.70;;
20832;SDS011;56075;51.264;7.150;2023-04-24T10:02:17;6.23;;;3.00;;
20832;SDS011;56075;51.264;7.150;2023-04-24T10:04:56;7.67;;;3.10;;
20832;SDS011;56075;51.264;7.150;2023-04-24T10:07:29;8.87;;;3.20;;
20832;SDS011;56075;51.264;7.150;2023-04-24T10:10:03;10.57;;;4.07;;
20832;SDS011;56075;51.264;7.150;2023-04-24T10:12:35;7.13;;;3.50;;
20832;SDS011;56075;51.264;7.150;2023-04-24T10:15:07;7.70;;;3.60;;
20832;SDS011;56075;51.264;7.150;2023-04-24T10:17:39;10.60;;;3.40;;
20832;SDS011;56075;51.264;7.150;2023-04-24T10:20:11;8.83;;;3.40;;
20832;SDS011;56075;51.264;7.150;2023-04-24T10:22:42;12.07;;;3.67;;
20832;SDS011;56075;51.264;7.150;2023-04-24T10:25:17;11.10;;;3.97;;
20832;SDS011;56075;51.264;7.150;2023-04-24T10:27:53;9.90;;;3.60;;
20832;SDS011;56075;51.264;7.150;2023-04-24T10:30:28;8.47;;;3.07;;
20832;SDS011;56075;51.264;7.150;2023-04-24T10:33:01;9.17;;;3.53;;
20832;SDS011;56075;51.264;7.150;2023-04-24T10:35:34;10.80;;;3.77;;
20832;SDS011;56075;51.264;7.150;2023-04-24T10:38:09;10.57;;;3.57;;
20832;SDS011;56075;51.264;7.150;2023-04-24T10:40:43;7.40;;;3.47;;
20832;SDS011;56075;51.264;7.150;2023-04-24T10:43:16;11.50;;;3.90;;
20832;SDS011;56075;51.264;7.150;2023-04-24T10:46:04;11.43;;;4.00;;
20832;SDS011;56075;51.264;7.150;2023-04-24T10:48:36;8.93;;;3.43;;
20832;SDS011;56075;51.264;7.150;2023-04-24T10:51:13;12.90;;;3.63;;
20832;SDS011;56075;51.264;7.150;2023-04-24T10:53:44;11.97;;;3.77;;
20832;SDS011;56075;51.264;7.150;2023-04-24T10:56:16;14.33;;;3.53;;
20832;SDS011;56075;51.264;7.150;2023-04-24T10:58:51;10.00;;;3.53;;
20832;SDS011;56075;51.264;7.150;2023-04-24T11:01:24;9.70;;;3.13;;
20832;SDS011;56075;51.264;7.150;2023-04-24T11:03:57;9.77;;;3.43;;
20832;SDS011;56075;51.264;7.150;2023-04-24T11:06:32;12.20;;;3.60;;
20832;SDS011;56075;51.264;7.150;2023-04-24T11:09:07;10.97;;;3.23;;
20832;SDS011;56075;51.264;7.150;2023-04-24T11:11:45;14.40;;;3.50;;
20832;SDS011;56075;51.264;7.150;2023-04-24T11:14:17;10.07;;;3.23;;
20832;SDS011;56075;51.264;7.150;2023-04-24T11:16:51;14.17;;;3.50;;
20832;SDS011;56075;51.264;7.150;2023-04-24T11:19:24;11.53;;;2.97;;
20832;SDS011;56075;51.264;7.150;2023-04-24T11:22:00;10.57;;;3.70;;
20832;SDS011;56075;51.264;7.150;2023-04-24T11:27:17;12.13;;;3.70;;
20832;SDS011;56075;51.264;7.150;2023-04-24T11:32:34;8.93;;;3.73;;
20832;SDS011;56075;51.264;7.150;2023-04-24T11:35:16;11.20;;;4.40;;
20832;SDS011;56075;51.264;7.150;2023-04-24T11:37:52;10.40;;;4.53;;
20832;SDS011;56075;51.264;7.150;2023-04-24T11:40:23;11.63;;;4.37;;
20832;SDS011;56075;51.264;7.150;2023-04-24T11:42:56;11.33;;;4.40;;
20832;SDS011;56075;51.264;7.150;2023-04-24T11:45:28;8.03;;;4.10;;
20832;SDS011;56075;51.264;7.150;2023-04-24T11:48:00;13.00;;;4.60;;
20832;SDS011;56075;51.264;7.150;2023-04-24T11:50:33;14.97;;;4.47;;
20832;SDS011;56075;51.264;7.150;2023-04-24T11:53:04;13.20;;;3.90;;
20832;SDS011;56075;51.264;7.150;2023-04-24T11:55:35;12.13;;;3.90;;
20832;SDS011;56075;51.264;7.150;2023-04-24T11:58:07;8.93;;;3.30;;
20832;SDS011;56075;51.264;7.150;2023-04-24T12:00:38;12.87;;;4.00;;
20832;SDS011;56075;51.264;7.150;2023-04-24T12:03:09;10.93;;;3.63;;
20832;SDS011;56075;51.264;7.150;2023-04-24T12:05:41;13.27;;;4.20;;
20832;SDS011;56075;51.264;7.150;2023-04-24T12:08:47;9.93;;;3.80;;
20832;SDS011;56075;51.264;7.150;2023-04-24T12:11:14;10.87;;;3.30;;
20832;SDS011;56075;51.264;7.150;2023-04-24T12:13:46;11.90;;;3.77;;
20832;SDS011;56075;51.264;7.150;2023-04-24T12:16:17;9.87;;;3.13;;
20832;SDS011;56075;51.264;7.150;2023-04-24T12:18:50;10.53;;;2.87;;
20832;SDS011;56075;51.264;7.150;2023-04-24T12:21:22;8.07;;;2.50;;
20832;SDS011;56075;51.264;7.150;2023-04-24T12:23:55;7.97;;;2.92;;
20832;SDS011;56075;51.264;7.150;2023-04-24T12:26:26;14.03;;;2.60;;
20832;SDS011;56075;51.264;7.150;2023-04-24T12:29:01;6.93;;;2.20;;
20832;SDS011;56075;51.264;7.150;2023-04-24T12:31:33;8.63;;;2.60;;
20832;SDS011;56075;51.264;7.150;2023-04-24T12:34:16;10.17;;;2.20;;
20832;SDS011;56075;51.264;7.150;2023-04-24T12:36:51;6.90;;;2.57;;
20832;SDS011;56075;51.264;7.150;2023-04-24T12:39:22;11.53;;;2.43;;
20832;SDS011;56075;51.264;7.150;2023-04-24T12:41:57;7.03;;;2.30;;
20832;SDS011;56075;51.264;7.150;2023-04-24T12:47:02;9.33;;;2.33;;
20832;SDS011;56075;51.264;7.150;2023-04-24T12:49:33;7.73;;;2.23;;
20832;SDS011;56075;51.264;7.150;2023-04-24T12:52:05;5.73;;;2.17;;
20832;SDS011;56075;51.264;7.150;2023-04-24T12:54:36;11.10;;;2.00;;
20832;SDS011;56075;51.264;7.150;2023-04-24T12:57:07;9.27;;;2.17;;
20832;SDS011;56075;51.264;7.150;2023-04-24T12:59:38;8.63;;;2.07;;
20832;SDS011;56075;51.264;7.150;2023-04-24T13:02:10;6.17;;;1.87;;
20832;SDS011;56075;51.264;7.150;2023-04-24T13:04:42;7.78;;;1.85;;
20832;SDS011;56075;51.264;7.150;2023-04-24T13:07:15;7.53;;;1.70;;
20832;SDS011;56075;51.264;7.150;2023-04-24T13:09:47;8.70;;;1.90;;
20832;SDS011;56075;51.264;7.150;2023-04-24T13:12:20;5.50;;;1.58;;
20832;SDS011;56075;51.264;7.150;2023-04-24T13:14:52;4.40;;;1.30;;
20832;SDS011;56075;51.264;7.150;2023-04-24T13:17:23;5.85;;;1.40;;
20832;SDS011;56075;51.264;7.150;2023-04-24T13:19:55;6.30;;;1.15;;
20832;SDS011;56075;51.264;7.150;2023-04-24T13:22:26;4.10;;;1.45;;
20832;SDS011;56075;51.264;7.150;2023-04-24T13:24:57;4.25;;;1.38;;
20832;SDS011;56075;51.264;7.150;2023-04-24T13:27:29;4.30;;;1.15;;
20832;SDS011;56075;51.264;7.150;2023-04-24T13:30:00;5.13;;;1.52;;
20832;SDS011;56075;51.264;7.150;2023-04-24T13:32:32;4.00;;;1.10;;
20832;SDS011;56075;51.264;7.150;2023-04-24T13:35:04;3.20;;;1.30;;
20832;SDS011;56075;51.264;7.150;2023-04-24T13:37:35;5.07;;;1.13;;
20832;SDS011;56075;51.264;7.150;2023-04-24T13:40:06;4.30;;;1.20;;
20832;SDS011;56075;51.264;7.150;2023-04-24T13:42:38;4.03;;;1.13;;
20832;SDS011;56075;51.264;7.150;2023-04-24T13:45:10;4.35;;;1.08;;
20832;SDS011;56075;51.264;7.150;2023-04-24T13:47:42;4.30;;;1.20;;
20832;SDS011;56075;51.264;7.150;2023-04-24T13:50:13;7.80;;;1.25;;
20832;SDS011;56075;51.264;7.150;2023-04-24T13:52:44;2.97;;;0.90;;
20832;SDS011;56075;51.264;7.150;2023-04-24T13:55:15;2.75;;;0.90;;
20832;SDS011;56075;51.264;7.150;2023-04-24T13:57:47;3.92;;;1.10;;
20832;SDS011;56075;51.264;7.150;2023-04-24T14:00:18;6.00;;;1.20;;
20832;SDS011;56075;51.264;7.150;2023-04-24T14:02:50;6.00;;;1.17;;
20832;SDS011;56075;51.264;7.150;2023-04-24T14:05:21;3.78;;;0.98;;
20832;SDS011;56075;51.264;7.150;2023-04-24T14:07:52;3.25;;;1.00;;
20832;SDS011;56075;51.264;7.150;2023-04-24T14:10:23;1.95;;;0.73;;
20832;SDS011;56075;51.264;7.150;2023-04-24T14:12:55;2.55;;;0.90;;
20832;SDS011;56075;51.264;7.150;2023-04-24T14:15:27;3.35;;;0.85;;
20832;SDS011;56075;51.264;7.150;2023-04-24T14:17:58;2.33;;;0.80;;
20832;SDS011;56075;51.264;7.150;2023-04-24T14:20:30;5.25;;;1.00;;
20832;SDS011;56075;51.264;7.150;2023-04-24T14:23:01;4.10;;;1.40;;
20832;SDS011;56075;51.264;7.150;2023-04-24T14:25:33;3.95;;;1.10;;
20832;SDS011;56075;51.264;7.150;2023-04-24T14:28:05;3.20;;;1.10;;
20832;SDS011;56075;51.264;7.150;2023-04-24T14:30:36;2.10;;;0.90;;
20832;SDS011;56075;51.264;7.150;2023-04-24T14:33:08;3.35;;;0.90;;
20832;SDS011;56075;51.264;7.150;2023-04-24T14:35:39;2.20;;;0.93;;
20832;SDS011;56075;51.264;7.150;2023-04-24T14:38:12;2.47;;;1.10;;
20832;SDS011;56075;51.264;7.150;2023-04-24T14:40:43;4.10;;;1.10;;
20832;SDS011;56075;51.264;7.150;2023-04-24T14:43:14;2.00;;;0.93;;
20832;SDS011;56075;51.264;7.150;2023-04-24T14:45:46;7.28;;;1.17;;
20832;SDS011;56075;51.264;7.150;2023-04-24T14:48:17;4.45;;;1.20;;
20832;SDS011;56075;51.264;7.150;2023-04-24T14:50:48;3.80;;;0.88;;
20832;SDS011;56075;51.264;7.150;2023-04-24T14:53:19;3.10;;;0.90;;
20832;SDS011;56075;51.264;7.150;2023-04-24T14:55:51;3.42;;;1.02;;
20832;SDS011;56075;51.264;7.150;2023-04-24T14:58:22;4.78;;;1.08;;
20832;SDS011;56075;51.264;7.150;2023-04-24T15:00:53;2.78;;;1.10;;
20832;SDS011;56075;51.264;7.150;2023-04-24T15:03:24;6.63;;;0.88;;
20832;SDS011;56075;51.264;7.150;2023-04-24T15:05:57;4.40;;;1.00;;
20832;SDS011;56075;51.264;7.150;2023-04-24T15:08:28;1.92;;;1.00;;
20832;SDS011;56075;51.264;7.150;2023-04-24T15:10:59;6.60;;;1.00;;
20832;SDS011;56075;51.264;7.150;2023-04-24T15:13:30;6.18;;;1.10;;
20832;SDS011;56075;51.264;7.150;2023-04-24T15:16:02;4.07;;;0.90;;
20832;SDS011;56075;51.264;7.150;2023-04-24T15:18:33;2.28;;;0.70;;
20832;SDS011;56075;51.264;7.150;2023-04-24T15:21:04;3.25;;;0.93;;
20832;SDS011;56075;51.264;7.150;2023-04-24T15:23:36;3.80;;;1.10;;